San Cosme, Argentina
Current Conditions -  °F | °C
As of 2:00 PM on Thursday 27 Nov 2014 (Local Time) from SARC Reporting Station
Few Clouds Few Clouds  
Wind Chill: 88°   Ceiling: Unl
Heat Index: 88°   Visibility: 6mi
Dew Point: 63°   Wind: 8mph
Humidity: 43%   Direction: NA
Pressure: 29.91"   Gusts: NA
Location:  27.37°S, 58.52°W
Report Text: SARC 271700Z VRB07KT 9999 FEW025 31/17 Q1013
Loading
Personal Weather Stations






























Interactive Weather Map New forecast layout! Learn more

10-Day Weather Forecast

Advertisements
Track Severe Weather on mobile